• Join FlightAware (Why Join?)
  • Login
  • US Flag 
03:36AM EST


 

Airport Tracker/Info


-or-


 

Live Flight TrackerFlight Track Log ✈ PDT4257 ✈ 12-Aug-2014 ✈ KPHL - KROA

Flight Track Log - Related Links

Times and Time Zones

All times are in EDT time to prevent confusion due to time zone crossing. See the PDT4257 flight status page for this flight to view local times or setup timezone preferences in your user account.

Time Position Orientation Groundspeed Altitude Reporting Facility
EDT Latitude Longitude Course Direction KTS MPH feet Rate Location/Type
09:30PM 39.8833 -75.2000 270° West 123 142 600  Level Philadelphia TRACON
09:31PM 39.9167 -75.1667 37° Northeast 171 197 2,000 1,320 Climbing Philadelphia TRACON
09:33PM 39.8500 -75.4887 270° West  Level FlightAware Approximate
09:33PM 39.9833 -75.1500 11° North 174 200 3,700  Level Philadelphia TRACON
09:33PM 40.0167 -75.1500 360° North 182 209 4,900 1,440 Climbing Philadelphia TRACON
09:34PM 39.8500 -75.5754 270° West  Level FlightAware Approximate
09:34PM 40.0000 -75.2167 252° West 159 183 6,500  Level Philadelphia TRACON
09:35PM 39.8333 -75.6575 270° West  Level FlightAware Approximate
09:36PM 39.8333 -75.7441 270° West  Level FlightAware Approximate
09:36PM 39.9717 -75.3186 250° West 165 190 8,400  Level New York Center
09:37PM 39.9550 -75.3717 248° West 165 190 9,000 300 Climbing New York Center
09:38PM 39.9317 -75.4353 244° Southwest 179 206 9,000  Level New York Center
09:39PM 39.9081 -75.5042 246° West 202 232 9,000  Level New York Center
09:40PM 39.8947 -75.5789 257° West 216 249 9,000 60 Level New York Center
09:41PM 39.9147 -75.6481 291° West 211 243 9,200 720 Climbing New York Center
09:42PM 39.9475 -75.7125 304° West 217 250 10,500 960 Climbing New York Center
09:43PM 39.9742 -75.7739 300° West 205 236 11,200 840 Climbing New York Center
09:44PM 39.9856 -75.8425 282° West 199 229 12,300 1,020 Climbing New York Center
09:45PM 39.9953 -75.9083 281° West 194 223 13,300 960 Climbing New York Center
09:46PM 40.0069 -75.9797 282° West 194 223 14,300 1,080 Climbing New York Center
09:47PM 40.0228 -76.0458 287° West 194 223 15,500 960 Climbing New York Center
09:48PM 40.0281 -76.1086 276° West 194 223 16,300 660 Climbing New York Center
09:49PM 40.0231 -76.1761 264° West 194 223 16,900 720 Climbing New York Center
09:50PM 40.0217 -76.2492 269° West 194 223 17,800 900 Climbing New York Center
09:51PM 39.9961 -76.3042 239° Southwest 183 211 18,700 600 Climbing New York Center
09:52PM 39.9650 -76.3475 227° Southwest 174 200 19,000 300 Climbing New York Center
09:53PM 39.9250 -76.3986 224° Southwest 187 215 19,400 420 Climbing New York Center
09:54PM 39.8914 -76.4472 228° Southwest 194 223 19,900 240 Climbing New York Center
09:55PM 39.8558 -76.4931 225° Southwest 188 216 20,000  Climbing New York Center
09:56PM 39.8158 -76.5467 226° Southwest 188 216 20,000  Level New York Center
09:57PM 39.7753 -76.6028 227° Southwest 207 238 20,000  Level New York Center
09:58PM 39.7369 -76.6644 231° Southwest 218 251 20,000  Level New York Center
09:59PM 39.6967 -76.7203 227° Southwest 218 251 20,000  Level New York Center
10:01PM 39.6325 -76.8014 224° Southwest 218 251 20,000  Level Washington Center
10:02PM 39.5883 -76.8544 223° Southwest 218 251 20,000  Level Washington Center
10:03PM 39.5439 -76.9075 223° Southwest 218 251 20,000  Level Washington Center
10:04PM 39.5017 -76.9631 225° Southwest 223 257 20,000  Level Washington Center
10:05PM 39.4572 -77.0189 224° Southwest 238 274 20,000  Level Washington Center
10:06PM 39.4192 -77.0636 222° Southwest 238 274 20,000  Level Washington Center
10:07PM 39.3622 -77.1244 220° Southwest 233 268 20,000  Level Washington Center
10:08PM 39.3136 -77.1689 215° Southwest 233 268 20,000  Level Washington Center
10:09PM 39.2631 -77.2161 216° Southwest 228 262 20,000  Level Washington Center
10:10PM 39.2144 -77.2633 217° Southwest 228 262 20,000  Level Washington Center
10:11PM 39.1678 -77.3131 220° Southwest 228 262 20,000  Level Washington Center
10:12PM 39.1214 -77.3628 220° Southwest 228 262 20,000  Level Washington Center
10:13PM 39.0747 -77.4125 220° Southwest 223 257 20,000  Level Washington Center
10:14PM 39.0281 -77.4619 219° Southwest 223 257 20,000  Level Washington Center
10:15PM 38.9814 -77.5142 221° Southwest 223 257 20,000  Level Washington Center
10:16PM 38.9392 -77.5531 216° Southwest 223 257 20,000  Level Washington Center
10:17PM 38.8903 -77.6053 220° Southwest 218 251 20,000  Level Washington Center
10:18PM 38.8458 -77.6494 218° Southwest 213 245 20,000  Level Washington Center
10:19PM 38.7928 -77.6983 216° Southwest 220 253 20,000  Level Washington Center
10:20PM 38.7483 -77.7450 219° Southwest 225 259 20,000  Level Washington Center
10:21PM 38.7014 -77.7917 218° Southwest 225 259 20,000  Level Washington Center
10:22PM 38.6547 -77.8381 218° Southwest 225 259 20,000  Level Washington Center
10:23PM 38.6142 -77.8953 228° Southwest 225 259 20,000  Level Washington Center
10:24PM 38.5814 -77.9633 238° Southwest 220 253 20,000  Level Washington Center
10:25PM 38.5469 -78.0258 235° Southwest 220 253 20,000  Level Washington Center
10:26PM 38.5122 -78.0858 234° Southwest 220 253 20,000  Level Washington Center
10:27PM 38.4736 -78.1428 229° Southwest 215 247 20,000  Level Washington Center
10:28PM 38.4367 -78.2078 234° Southwest 220 253 20,000  Level Washington Center
10:29PM 38.4000 -78.2650 231° Southwest 220 253 20,000  Level Washington Center
10:30PM 38.3611 -78.3269 231° Southwest 220 253 20,000  Level Washington Center
10:31PM 38.3264 -78.3892 235° Southwest 220 253 20,000  Level Washington Center
10:32PM 38.2936 -78.4464 234° Southwest 242 278 20,000  Level Washington Center
10:33PM 38.2347 -78.4731 200° South 237 273 20,000  Level Washington Center
10:34PM 38.1839 -78.5056 207° Southwest 230 265 20,000  Level Washington Center
10:35PM 38.1592 -78.5706 244° Southwest 209 241 20,000  Level Washington Center
10:36PM 38.1347 -78.6383 245° Southwest 209 241 20,000  Level Washington Center
10:37PM 38.1244 -78.7117 260° West 209 241 20,000  Level Washington Center
10:38PM 38.1122 -78.7797 257° West 209 241 20,000  Level Washington Center
10:39PM 38.1000 -78.8478 257° West 204 235 20,000  Level Washington Center
10:40PM 38.0794 -78.9103 247° West 199 229 20,000  Level Washington Center
10:41PM 38.0444 -78.9719 234° Southwest 206 237 20,000  Level Washington Center
10:42PM 38.0114 -79.0339 236° Southwest 219 252 20,000  Level Washington Center
10:43PM 37.9803 -79.0983 239° Southwest 219 252 20,000 -240 Level Washington Center
10:44PM 37.9469 -79.1625 237° Southwest 219 252 19,600 -660 Descending Washington Center
10:45PM 37.9183 -79.2192 237° Southwest 214 246 18,700 -900 Descending Washington Center
10:46PM 37.8878 -79.2625 228° Southwest 188 216 17,800 -1,200 Descending Washington Center
10:47PM 37.8531 -79.3028 222° Southwest 170 196 16,400 -1,440 Descending Washington Center
10:48PM 37.8183 -79.3483 226° Southwest 170 196 15,000 -1,740 Descending Washington Center
10:49PM 37.7628 -79.3931 212° Southwest 207 238 13,100 -1,560 Descending Washington Center
10:50PM 37.7400 -79.4522 244° Southwest 202 232 12,000 -1,440 Descending Washington Center
10:51PM 37.6944 -79.5022 221° Southwest 213 245 10,100 -1,740 Descending Washington Center
10:52PM 37.6531 -79.5578 227° Southwest 213 245 8,600 -1,500 Descending Washington Center
10:53PM 37.6056 -79.6025 217° Southwest 200 230 7,200 -1,320 Descending Washington Center
10:54PM 37.5725 -79.6533 231° Southwest 201 231 6,000 -600 Descending Washington Center
10:55PM 37.5381 -79.6881 219° Southwest 187 215 6,000  Level Washington Center
10:56PM 37.4817 -79.6878 180° South 180 207 6,000  Level Washington Center
10:57PM 37.4256 -79.6847 178° South 184 212 6,000  Level Washington Center
10:58PM 37.3775 -79.6847 180° South 190 219 6,000 -600 Level Washington Center
11:01PM 37.2606 -79.7542 218° Southwest 152 175 3,800 -600 Descending Washington Center
11:05PM 37.2989 -79.9625 283° West 126 145 1,600 -540 Descending Washington Center